sensor_id;sensor_type;location;lat;lon;timestamp;P1;durP1;ratioP1;P2;durP2;ratioP2
79646;SDS011;69119;41.718;21.786;2024-03-02T00:00:00;59.38;;;35.30;;
79646;SDS011;69119;41.718;21.786;2024-03-02T00:02:34;61.22;;;34.75;;
79646;SDS011;69119;41.718;21.786;2024-03-02T00:05:00;87.78;;;38.70;;
79646;SDS011;69119;41.718;21.786;2024-03-02T00:07:26;73.15;;;38.25;;
79646;SDS011;69119;41.718;21.786;2024-03-02T00:09:53;77.63;;;39.40;;
79646;SDS011;69119;41.718;21.786;2024-03-02T00:12:19;72.55;;;37.47;;
79646;SDS011;69119;41.718;21.786;2024-03-02T00:14:46;86.07;;;40.03;;
79646;SDS011;69119;41.718;21.786;2024-03-02T00:17:15;57.30;;;34.75;;
79646;SDS011;69119;41.718;21.786;2024-03-02T00:19:44;69.22;;;39.85;;
79646;SDS011;69119;41.718;21.786;2024-03-02T00:22:10;73.43;;;37.85;;
79646;SDS011;69119;41.718;21.786;2024-03-02T00:24:36;75.05;;;37.25;;
79646;SDS011;69119;41.718;21.786;2024-03-02T00:27:03;73.88;;;38.55;;
79646;SDS011;69119;41.718;21.786;2024-03-02T00:29:29;104.28;;;43.88;;
79646;SDS011;69119;41.718;21.786;2024-03-02T00:31:56;79.82;;;40.42;;
79646;SDS011;69119;41.718;21.786;2024-03-02T00:34:23;86.22;;;42.78;;
79646;SDS011;69119;41.718;21.786;2024-03-02T00:36:49;76.20;;;40.42;;
79646;SDS011;69119;41.718;21.786;2024-03-02T00:39:16;73.90;;;36.97;;
79646;SDS011;69119;41.718;21.786;2024-03-02T00:41:42;72.15;;;37.60;;
79646;SDS011;69119;41.718;21.786;2024-03-02T00:44:12;67.38;;;37.00;;
79646;SDS011;69119;41.718;21.786;2024-03-02T00:46:39;73.68;;;36.95;;
79646;SDS011;69119;41.718;21.786;2024-03-02T00:49:10;89.95;;;38.45;;
79646;SDS011;69119;41.718;21.786;2024-03-02T00:51:37;70.25;;;34.78;;
79646;SDS011;69119;41.718;21.786;2024-03-02T00:54:04;74.22;;;33.80;;
79646;SDS011;69119;41.718;21.786;2024-03-02T00:56:31;74.35;;;34.88;;
79646;SDS011;69119;41.718;21.786;2024-03-02T00:58:57;61.60;;;28.58;;
79646;SDS011;69119;41.718;21.786;2024-03-02T01:01:23;58.55;;;28.80;;
79646;SDS011;69119;41.718;21.786;2024-03-02T01:03:49;54.55;;;27.77;;
79646;SDS011;69119;41.718;21.786;2024-03-02T01:06:16;67.35;;;33.92;;
79646;SDS011;69119;41.718;21.786;2024-03-02T01:08:42;51.70;;;28.38;;
79646;SDS011;69119;41.718;21.786;2024-03-02T01:11:08;49.30;;;26.52;;
79646;SDS011;69119;41.718;21.786;2024-03-02T01:13:34;52.63;;;28.45;;
79646;SDS011;69119;41.718;21.786;2024-03-02T01:16:01;50.42;;;28.10;;
79646;SDS011;69119;41.718;21.786;2024-03-02T01:18:27;50.20;;;28.83;;
79646;SDS011;69119;41.718;21.786;2024-03-02T01:20:53;51.70;;;28.38;;
79646;SDS011;69119;41.718;21.786;2024-03-02T01:23:23;46.92;;;27.50;;
79646;SDS011;69119;41.718;21.786;2024-03-02T01:25:49;45.53;;;25.92;;
79646;SDS011;69119;41.718;21.786;2024-03-02T01:28:16;44.28;;;24.67;;
79646;SDS011;69119;41.718;21.786;2024-03-02T01:30:42;41.17;;;24.65;;
79646;SDS011;69119;41.718;21.786;2024-03-02T01:33:08;44.28;;;25.20;;
79646;SDS011;69119;41.718;21.786;2024-03-02T01:35:34;47.20;;;26.58;;
79646;SDS011;69119;41.718;21.786;2024-03-02T01:38:01;47.90;;;28.10;;
79646;SDS011;69119;41.718;21.786;2024-03-02T01:40:27;51.88;;;27.88;;
79646;SDS011;69119;41.718;21.786;2024-03-02T01:42:53;47.50;;;27.70;;
79646;SDS011;69119;41.718;21.786;2024-03-02T01:45:20;47.78;;;28.02;;
79646;SDS011;69119;41.718;21.786;2024-03-02T01:47:46;50.10;;;30.45;;
79646;SDS011;69119;41.718;21.786;2024-03-02T01:50:12;48.17;;;28.05;;
79646;SDS011;69119;41.718;21.786;2024-03-02T01:52:38;46.35;;;27.98;;
79646;SDS011;69119;41.718;21.786;2024-03-02T01:55:05;47.45;;;25.60;;
79646;SDS011;69119;41.718;21.786;2024-03-02T01:57:32;45.95;;;26.30;;
79646;SDS011;69119;41.718;21.786;2024-03-02T01:59:58;37.45;;;23.10;;
79646;SDS011;69119;41.718;21.786;2024-03-02T02:02:24;45.85;;;25.17;;
79646;SDS011;69119;41.718;21.786;2024-03-02T02:04:50;38.03;;;23.00;;
79646;SDS011;69119;41.718;21.786;2024-03-02T02:07:17;41.58;;;26.17;;
79646;SDS011;69119;41.718;21.786;2024-03-02T02:09:43;41.13;;;24.98;;
79646;SDS011;69119;41.718;21.786;2024-03-02T02:12:09;38.83;;;23.42;;
79646;SDS011;69119;41.718;21.786;2024-03-02T02:14:36;38.35;;;22.05;;
79646;SDS011;69119;41.718;21.786;2024-03-02T02:17:02;36.45;;;22.35;;
79646;SDS011;69119;41.718;21.786;2024-03-02T02:19:28;36.47;;;23.08;;
79646;SDS011;69119;41.718;21.786;2024-03-02T02:21:54;37.22;;;21.58;;
79646;SDS011;69119;41.718;21.786;2024-03-02T02:24:21;37.50;;;22.38;;
79646;SDS011;69119;41.718;21.786;2024-03-02T02:26:47;35.47;;;21.05;;
79646;SDS011;69119;41.718;21.786;2024-03-02T02:29:13;33.00;;;20.23;;
79646;SDS011;69119;41.718;21.786;2024-03-02T02:31:39;35.00;;;19.75;;
79646;SDS011;69119;41.718;21.786;2024-03-02T02:34:05;37.90;;;20.35;;
79646;SDS011;69119;41.718;21.786;2024-03-02T02:36:32;41.47;;;20.35;;
79646;SDS011;69119;41.718;21.786;2024-03-02T02:38:58;35.25;;;20.30;;
79646;SDS011;69119;41.718;21.786;2024-03-02T02:41:25;38.88;;;21.35;;
79646;SDS011;69119;41.718;21.786;2024-03-02T02:43:51;37.45;;;19.98;;
79646;SDS011;69119;41.718;21.786;2024-03-02T02:46:17;47.83;;;23.77;;
79646;SDS011;69119;41.718;21.786;2024-03-02T02:48:43;50.13;;;24.23;;
79646;SDS011;69119;41.718;21.786;2024-03-02T02:51:09;39.72;;;22.98;;
79646;SDS011;69119;41.718;21.786;2024-03-02T02:53:35;44.08;;;24.23;;
79646;SDS011;69119;41.718;21.786;2024-03-02T02:56:05;47.42;;;26.10;;
79646;SDS011;69119;41.718;21.786;2024-03-02T02:58:31;44.75;;;24.35;;
79646;SDS011;69119;41.718;21.786;2024-03-02T03:00:57;47.22;;;24.35;;
79646;SDS011;69119;41.718;21.786;2024-03-02T03:03:23;51.42;;;26.35;;
79646;SDS011;69119;41.718;21.786;2024-03-02T03:05:49;46.97;;;27.63;;
79646;SDS011;69119;41.718;21.786;2024-03-02T03:08:16;44.55;;;25.73;;
79646;SDS011;69119;41.718;21.786;2024-03-02T03:10:42;45.78;;;24.83;;
79646;SDS011;69119;41.718;21.786;2024-03-02T03:15:35;46.60;;;25.00;;
79646;SDS011;69119;41.718;21.786;2024-03-02T03:18:04;47.28;;;24.17;;
79646;SDS011;69119;41.718;21.786;2024-03-02T03:20:30;39.30;;;23.80;;
79646;SDS011;69119;41.718;21.786;2024-03-02T03:22:56;43.22;;;23.45;;
79646;SDS011;69119;41.718;21.786;2024-03-02T03:25:22;41.10;;;23.58;;
79646;SDS011;69119;41.718;21.786;2024-03-02T03:27:49;37.72;;;22.25;;
79646;SDS011;69119;41.718;21.786;2024-03-02T03:30:17;31.95;;;19.35;;
79646;SDS011;69119;41.718;21.786;2024-03-02T03:32:43;35.10;;;21.33;;
79646;SDS011;69119;41.718;21.786;2024-03-02T03:35:09;35.70;;;20.80;;
79646;SDS011;69119;41.718;21.786;2024-03-02T03:37:35;42.67;;;22.50;;
79646;SDS011;69119;41.718;21.786;2024-03-02T03:40:04;36.08;;;19.25;;
79646;SDS011;69119;41.718;21.786;2024-03-02T03:45:07;35.35;;;20.83;;
79646;SDS011;69119;41.718;21.786;2024-03-02T03:47:34;36.10;;;20.77;;
79646;SDS011;69119;41.718;21.786;2024-03-02T03:50:00;33.13;;;19.33;;
79646;SDS011;69119;41.718;21.786;2024-03-02T03:52:26;39.13;;;21.70;;
79646;SDS011;69119;41.718;21.786;2024-03-02T03:54:52;39.35;;;22.05;;
79646;SDS011;69119;41.718;21.786;2024-03-02T03:57:18;40.42;;;22.67;;
79646;SDS011;69119;41.718;21.786;2024-03-02T03:59:44;43.03;;;22.33;;
79646;SDS011;69119;41.718;21.786;2024-03-02T04:02:11;41.92;;;22.90;;
79646;SDS011;69119;41.718;21.786;2024-03-02T04:04:38;51.92;;;25.48;;
79646;SDS011;69119;41.718;21.786;2024-03-02T04:07:04;50.42;;;23.92;;
79646;SDS011;69119;41.718;21.786;2024-03-02T04:09:30;52.53;;;24.60;;
79646;SDS011;69119;41.718;21.786;2024-03-02T04:11:56;44.88;;;24.58;;
79646;SDS011;69119;41.718;21.786;2024-03-02T04:14:22;43.95;;;24.40;;
79646;SDS011;69119;41.718;21.786;2024-03-02T04:16:48;46.67;;;24.10;;
79646;SDS011;69119;41.718;21.786;2024-03-02T04:19:14;45.72;;;24.67;;
79646;SDS011;69119;41.718;21.786;2024-03-02T04:21:40;43.67;;;25.83;;
79646;SDS011;69119;41.718;21.786;2024-03-02T04:24:06;44.90;;;26.15;;
79646;SDS011;69119;41.718;21.786;2024-03-02T04:28:59;42.85;;;25.30;;
79646;SDS011;69119;41.718;21.786;2024-03-02T04:31:25;47.13;;;25.38;;
79646;SDS011;69119;41.718;21.786;2024-03-02T04:33:52;49.65;;;27.13;;
79646;SDS011;69119;41.718;21.786;2024-03-02T04:38:46;49.88;;;27.35;;
79646;SDS011;69119;41.718;21.786;2024-03-02T04:41:12;44.17;;;25.35;;
79646;SDS011;69119;41.718;21.786;2024-03-02T04:43:38;46.38;;;26.85;;
79646;SDS011;69119;41.718;21.786;2024-03-02T04:46:04;45.75;;;24.67;;
79646;SDS011;69119;41.718;21.786;2024-03-02T04:48:32;42.25;;;24.77;;
79646;SDS011;69119;41.718;21.786;2024-03-02T04:50:59;46.78;;;25.25;;
79646;SDS011;69119;41.718;21.786;2024-03-02T04:53:25;42.28;;;23.33;;
79646;SDS011;69119;41.718;21.786;2024-03-02T04:55:51;35.58;;;22.33;;
79646;SDS011;69119;41.718;21.786;2024-03-02T04:58:35;43.67;;;24.42;;
79646;SDS011;69119;41.718;21.786;2024-03-02T05:01:01;45.25;;;24.40;;
79646;SDS011;69119;41.718;21.786;2024-03-02T05:03:27;37.95;;;24.13;;
79646;SDS011;69119;41.718;21.786;2024-03-02T05:05:53;38.85;;;23.60;;
79646;SDS011;69119;41.718;21.786;2024-03-02T05:08:19;41.90;;;23.45;;
79646;SDS011;69119;41.718;21.786;2024-03-02T05:10:45;40.25;;;23.42;;
79646;SDS011;69119;41.718;21.786;2024-03-02T05:13:11;42.85;;;23.85;;
79646;SDS011;69119;41.718;21.786;2024-03-02T05:15:37;36.80;;;22.80;;
79646;SDS011;69119;41.718;21.786;2024-03-02T05:18:04;41.05;;;21.65;;
79646;SDS011;69119;41.718;21.786;2024-03-02T05:20:30;44.80;;;23.83;;
79646;SDS011;69119;41.718;21.786;2024-03-02T05:22:56;39.63;;;25.85;;
79646;SDS011;69119;41.718;21.786;2024-03-02T05:25:22;35.67;;;19.42;;
79646;SDS011;69119;41.718;21.786;2024-03-02T05:27:48;34.60;;;21.13;;
79646;SDS011;69119;41.718;21.786;2024-03-02T05:30:14;37.55;;;21.65;;
79646;SDS011;69119;41.718;21.786;2024-03-02T05:32:40;46.67;;;26.35;;
79646;SDS011;69119;41.718;21.786;2024-03-02T05:35:07;52.35;;;29.15;;
79646;SDS011;69119;41.718;21.786;2024-03-02T05:37:33;47.75;;;28.58;;
79646;SDS011;69119;41.718;21.786;2024-03-02T05:39:59;51.03;;;29.38;;
79646;SDS011;69119;41.718;21.786;2024-03-02T05:42:26;51.33;;;31.30;;
79646;SDS011;69119;41.718;21.786;2024-03-02T05:44:52;68.95;;;32.50;;
79646;SDS011;69119;41.718;21.786;2024-03-02T05:47:19;58.53;;;30.63;;
79646;SDS011;69119;41.718;21.786;2024-03-02T05:49:45;52.33;;;30.55;;
79646;SDS011;69119;41.718;21.786;2024-03-02T05:52:12;36.83;;;24.30;;
79646;SDS011;69119;41.718;21.786;2024-03-02T05:54:38;35.88;;;21.40;;
79646;SDS011;69119;41.718;21.786;2024-03-02T05:57:04;47.22;;;25.80;;
79646;SDS011;69119;41.718;21.786;2024-03-02T05:59:56;44.92;;;24.80;;
79646;SDS011;69119;41.718;21.786;2024-03-02T06:02:23;40.95;;;22.80;;
79646;SDS011;69119;41.718;21.786;2024-03-02T06:04:49;44.05;;;24.17;;
79646;SDS011;69119;41.718;21.786;2024-03-02T06:07:15;37.08;;;22.48;;
79646;SDS011;69119;41.718;21.786;2024-03-02T06:09:41;50.22;;;26.48;;
79646;SDS011;69119;41.718;21.786;2024-03-02T06:12:07;43.47;;;26.20;;
79646;SDS011;69119;41.718;21.786;2024-03-02T06:14:33;41.10;;;26.15;;
79646;SDS011;69119;41.718;21.786;2024-03-02T06:16:59;42.85;;;24.98;;
79646;SDS011;69119;41.718;21.786;2024-03-02T06:19:25;38.83;;;24.33;;
79646;SDS011;69119;41.718;21.786;2024-03-02T06:21:52;31.33;;;20.45;;
79646;SDS011;69119;41.718;21.786;2024-03-02T06:24:18;24.55;;;15.93;;
79646;SDS011;69119;41.718;21.786;2024-03-02T06:26:44;27.05;;;17.75;;
79646;SDS011;69119;41.718;21.786;2024-03-02T06:29:10;29.10;;;19.13;;
79646;SDS011;69119;41.718;21.786;2024-03-02T06:31:37;29.10;;;19.45;;
79646;SDS011;69119;41.718;21.786;2024-03-02T06:34:03;30.70;;;19.52;;
79646;SDS011;69119;41.718;21.786;2024-03-02T06:36:29;34.35;;;23.48;;
79646;SDS011;69119;41.718;21.786;2024-03-02T06:38:55;29.02;;;21.10;;
79646;SDS011;69119;41.718;21.786;2024-03-02T06:41:21;31.13;;;22.55;;
79646;SDS011;69119;41.718;21.786;2024-03-02T06:43:48;27.10;;;18.33;;
79646;SDS011;69119;41.718;21.786;2024-03-02T06:46:14;29.10;;;19.58;;
79646;SDS011;69119;41.718;21.786;2024-03-02T06:48:40;27.40;;;18.02;;
79646;SDS011;69119;41.718;21.786;2024-03-02T06:51:06;24.35;;;16.25;;
79646;SDS011;69119;41.718;21.786;2024-03-02T06:53:32;23.45;;;16.30;;
79646;SDS011;69119;41.718;21.786;2024-03-02T06:55:58;20.55;;;12.88;;
79646;SDS011;69119;41.718;21.786;2024-03-02T06:58:25;21.98;;;14.02;;
79646;SDS011;69119;41.718;21.786;2024-03-02T07:00:51;24.75;;;15.15;;
79646;SDS011;69119;41.718;21.786;2024-03-02T07:03:17;30.88;;;21.10;;
79646;SDS011;69119;41.718;21.786;2024-03-02T07:05:44;23.92;;;15.75;;
79646;SDS011;69119;41.718;21.786;2024-03-02T07:08:10;22.13;;;15.55;;
79646;SDS011;69119;41.718;21.786;2024-03-02T07:10:36;24.50;;;16.83;;
79646;SDS011;69119;41.718;21.786;2024-03-02T07:13:02;24.55;;;15.73;;
79646;SDS011;69119;41.718;21.786;2024-03-02T07:15:28;18.65;;;13.63;;
79646;SDS011;69119;41.718;21.786;2024-03-02T07:18:09;20.15;;;12.77;;
79646;SDS011;69119;41.718;21.786;2024-03-02T07:20:35;14.93;;;10.27;;
79646;SDS011;69119;41.718;21.786;2024-03-02T07:23:03;17.25;;;12.60;;
79646;SDS011;69119;41.718;21.786;2024-03-02T07:25:29;16.42;;;10.70;;
79646;SDS011;69119;41.718;21.786;2024-03-02T07:27:55;16.50;;;10.73;;
79646;SDS011;69119;41.718;21.786;2024-03-02T07:30:22;15.30;;;10.18;;
79646;SDS011;69119;41.718;21.786;2024-03-02T07:32:49;14.77;;;10.48;;
79646;SDS011;69119;41.718;21.786;2024-03-02T07:35:15;14.57;;;10.35;;
79646;SDS011;69119;41.718;21.786;2024-03-02T07:37:43;18.95;;;11.45;;
79646;SDS011;69119;41.718;21.786;2024-03-02T07:40:09;16.48;;;10.70;;
79646;SDS011;69119;41.718;21.786;2024-03-02T07:42:36;28.85;;;15.82;;
79646;SDS011;69119;41.718;21.786;2024-03-02T07:45:04;22.83;;;12.70;;
79646;SDS011;69119;41.718;21.786;2024-03-02T07:47:30;16.92;;;11.00;;
79646;SDS011;69119;41.718;21.786;2024-03-02T07:49:56;15.13;;;10.18;;
79646;SDS011;69119;41.718;21.786;2024-03-02T07:52:22;14.63;;;9.50;;
79646;SDS011;69119;41.718;21.786;2024-03-02T07:54:48;13.27;;;7.75;;
79646;SDS011;69119;41.718;21.786;2024-03-02T07:57:14;11.90;;;7.50;;
79646;SDS011;69119;41.718;21.786;2024-03-02T07:59:40;11.60;;;6.78;;
79646;SDS011;69119;41.718;21.786;2024-03-02T08:02:06;10.27;;;5.72;;
79646;SDS011;69119;41.718;21.786;2024-03-02T08:04:32;11.10;;;5.90;;
79646;SDS011;69119;41.718;21.786;2024-03-02T08:06:58;10.15;;;6.38;;
79646;SDS011;69119;41.718;21.786;2024-03-02T08:09:25;9.77;;;6.45;;
79646;SDS011;69119;41.718;21.786;2024-03-02T08:11:51;9.10;;;6.05;;
79646;SDS011;69119;41.718;21.786;2024-03-02T08:14:17;8.52;;;5.28;;
79646;SDS011;69119;41.718;21.786;2024-03-02T08:16:43;10.23;;;6.53;;
79646;SDS011;69119;41.718;21.786;2024-03-02T08:19:09;10.27;;;7.70;;
79646;SDS011;69119;41.718;21.786;2024-03-02T08:24:02;11.02;;;7.15;;
79646;SDS011;69119;41.718;21.786;2024-03-02T08:26:28;10.05;;;6.60;;
79646;SDS011;69119;41.718;21.786;2024-03-02T08:28:56;11.50;;;7.75;;
79646;SDS011;69119;41.718;21.786;2024-03-02T08:31:22;10.05;;;5.82;;
79646;SDS011;69119;41.718;21.786;2024-03-02T08:33:48;9.30;;;6.15;;
79646;SDS011;69119;41.718;21.786;2024-03-02T08:36:14;7.60;;;3.95;;
79646;SDS011;69119;41.718;21.786;2024-03-02T08:38:40;7.97;;;4.18;;
79646;SDS011;69119;41.718;21.786;2024-03-02T08:43:33;8.65;;;4.85;;
79646;SDS011;69119;41.718;21.786;2024-03-02T08:45:59;8.57;;;4.57;;
79646;SDS011;69119;41.718;21.786;2024-03-02T08:48:25;9.32;;;5.70;;
79646;SDS011;69119;41.718;21.786;2024-03-02T08:50:51;10.27;;;6.28;;
79646;SDS011;69119;41.718;21.786;2024-03-02T08:53:17;9.15;;;4.97;;
79646;SDS011;69119;41.718;21.786;2024-03-02T08:55:45;10.80;;;7.55;;
79646;SDS011;69119;41.718;21.786;2024-03-02T08:58:11;10.35;;;6.57;;
79646;SDS011;69119;41.718;21.786;2024-03-02T09:00:37;9.60;;;5.05;;
79646;SDS011;69119;41.718;21.786;2024-03-02T09:03:03;10.10;;;5.88;;
79646;SDS011;69119;41.718;21.786;2024-03-02T09:05:29;14.50;;;10.63;;
79646;SDS011;69119;41.718;21.786;2024-03-02T09:07:55;11.65;;;6.78;;
79646;SDS011;69119;41.718;21.786;2024-03-02T09:10:21;15.38;;;10.10;;
79646;SDS011;69119;41.718;21.786;2024-03-02T09:12:47;12.88;;;8.48;;
79646;SDS011;69119;41.718;21.786;2024-03-02T09:15:13;9.73;;;5.47;;
79646;SDS011;69119;41.718;21.786;2024-03-02T09:17:39;11.25;;;6.72;;
79646;SDS011;69119;41.718;21.786;2024-03-02T09:20:06;10.50;;;6.38;;
79646;SDS011;69119;41.718;21.786;2024-03-02T09:24:58;10.20;;;5.80;;
79646;SDS011;69119;41.718;21.786;2024-03-02T09:27:24;13.50;;;8.80;;
79646;SDS011;69119;41.718;21.786;2024-03-02T09:29:50;13.63;;;7.78;;
79646;SDS011;69119;41.718;21.786;2024-03-02T09:32:16;14.00;;;9.35;;
79646;SDS011;69119;41.718;21.786;2024-03-02T09:34:42;11.23;;;7.38;;
79646;SDS011;69119;41.718;21.786;2024-03-02T09:37:08;8.73;;;5.10;;
79646;SDS011;69119;41.718;21.786;2024-03-02T09:42:00;13.80;;;5.75;;
79646;SDS011;69119;41.718;21.786;2024-03-02T09:44:27;11.48;;;6.30;;
79646;SDS011;69119;41.718;21.786;2024-03-02T09:46:53;13.23;;;5.93;;
79646;SDS011;69119;41.718;21.786;2024-03-02T09:49:19;9.75;;;4.97;;
79646;SDS011;69119;41.718;21.786;2024-03-02T09:51:48;11.52;;;5.60;;
79646;SDS011;69119;41.718;21.786;2024-03-02T09:54:15;14.80;;;6.95;;
79646;SDS011;69119;41.718;21.786;2024-03-02T09:56:41;13.13;;;7.03;;
79646;SDS011;69119;41.718;21.786;2024-03-02T09:59:07;16.70;;;8.98;;
79646;SDS011;69119;41.718;21.786;2024-03-02T10:01:34;14.00;;;9.23;;
79646;SDS011;69119;41.718;21.786;2024-03-02T10:04:00;12.80;;;8.57;;
79646;SDS011;69119;41.718;21.786;2024-03-02T10:06:27;15.05;;;8.98;;
79646;SDS011;69119;41.718;21.786;2024-03-02T10:08:54;12.60;;;7.10;;
79646;SDS011;69119;41.718;21.786;2024-03-02T10:11:33;14.77;;;8.02;;
79646;SDS011;69119;41.718;21.786;2024-03-02T10:16:33;9.85;;;4.93;;
79646;SDS011;69119;41.718;21.786;2024-03-02T10:19:14;12.60;;;4.90;;
79646;SDS011;69119;41.718;21.786;2024-03-02T10:21:41;10.45;;;4.70;;
79646;SDS011;69119;41.718;21.786;2024-03-02T10:26:33;12.13;;;5.65;;
79646;SDS011;69119;41.718;21.786;2024-03-02T10:31:27;11.68;;;6.05;;
79646;SDS011;69119;41.718;21.786;2024-03-02T10:33:59;15.60;;;6.32;;
79646;SDS011;69119;41.718;21.786;2024-03-02T10:36:27;11.93;;;4.07;;
79646;SDS011;69119;41.718;21.786;2024-03-02T10:38:53;10.02;;;3.90;;
79646;SDS011;69119;41.718;21.786;2024-03-02T10:41:24;11.82;;;3.70;;
79646;SDS011;69119;41.718;21.786;2024-03-02T10:43:53;10.82;;;3.92;;
79646;SDS011;69119;41.718;21.786;2024-03-02T10:46:25;9.10;;;3.28;;
79646;SDS011;69119;41.718;21.786;2024-03-02T10:48:54;9.35;;;3.25;;
79646;SDS011;69119;41.718;21.786;2024-03-02T10:51:21;6.75;;;1.92;;
79646;SDS011;69119;41.718;21.786;2024-03-02T10:56:14;10.65;;;2.25;;
79646;SDS011;69119;41.718;21.786;2024-03-02T10:58:41;8.05;;;2.38;;
79646;SDS011;69119;41.718;21.786;2024-03-02T11:01:08;8.77;;;2.90;;
79646;SDS011;69119;41.718;21.786;2024-03-02T11:03:35;9.82;;;2.72;;
79646;SDS011;69119;41.718;21.786;2024-03-02T11:06:07;8.85;;;3.05;;
79646;SDS011;69119;41.718;21.786;2024-03-02T11:08:34;7.25;;;2.83;;
79646;SDS011;69119;41.718;21.786;2024-03-02T11:11:03;11.02;;;4.15;;
79646;SDS011;69119;41.718;21.786;2024-03-02T11:13:32;9.13;;;3.00;;
79646;SDS011;69119;41.718;21.786;2024-03-02T11:16:17;15.52;;;8.15;;
79646;SDS011;69119;41.718;21.786;2024-03-02T11:18:45;9.55;;;4.03;;
79646;SDS011;69119;41.718;21.786;2024-03-02T11:21:11;9.77;;;3.38;;
79646;SDS011;69119;41.718;21.786;2024-03-02T11:23:38;6.35;;;1.70;;
79646;SDS011;69119;41.718;21.786;2024-03-02T11:26:17;8.75;;;2.45;;
79646;SDS011;69119;41.718;21.786;2024-03-02T11:28:44;7.90;;;3.20;;
79646;SDS011;69119;41.718;21.786;2024-03-02T11:31:10;9.43;;;2.70;;
79646;SDS011;69119;41.718;21.786;2024-03-02T11:33:36;9.23;;;3.85;;
79646;SDS011;69119;41.718;21.786;2024-03-02T11:36:03;11.25;;;3.70;;
79646;SDS011;69119;41.718;21.786;2024-03-02T11:38:30;8.70;;;3.83;;
79646;SDS011;69119;41.718;21.786;2024-03-02T11:40:59;8.93;;;3.47;;
79646;SDS011;69119;41.718;21.786;2024-03-02T11:43:25;6.95;;;1.98;;
79646;SDS011;69119;41.718;21.786;2024-03-02T11:45:59;8.32;;;2.53;;
79646;SDS011;69119;41.718;21.786;2024-03-02T11:48:25;6.97;;;1.85;;
79646;SDS011;69119;41.718;21.786;2024-03-02T11:50:52;8.13;;;1.88;;
79646;SDS011;69119;41.718;21.786;2024-03-02T11:53:19;7.63;;;2.22;;
79646;SDS011;69119;41.718;21.786;2024-03-02T11:55:45;7.63;;;2.90;;
79646;SDS011;69119;41.718;21.786;2024-03-02T11:58:12;9.77;;;2.17;;
79646;SDS011;69119;41.718;21.786;2024-03-02T12:00:38;8.27;;;2.35;;
79646;SDS011;69119;41.718;21.786;2024-03-02T12:03:05;8.02;;;1.88;;
79646;SDS011;69119;41.718;21.786;2024-03-02T12:05:31;7.05;;;2.17;;
79646;SDS011;69119;41.718;21.786;2024-03-02T12:07:58;7.35;;;2.35;;
79646;SDS011;69119;41.718;21.786;2024-03-02T12:10:24;6.93;;;2.30;;
79646;SDS011;69119;41.718;21.786;2024-03-02T12:15:41;9.10;;;2.78;;
79646;SDS011;69119;41.718;21.786;2024-03-02T12:18:07;7.65;;;3.08;;
79646;SDS011;69119;41.718;21.786;2024-03-02T12:20:33;9.80;;;3.40;;
79646;SDS011;69119;41.718;21.786;2024-03-02T12:25:25;10.05;;;3.30;;
79646;SDS011;69119;41.718;21.786;2024-03-02T12:27:55;9.55;;;2.70;;
79646;SDS011;69119;41.718;21.786;2024-03-02T12:30:22;11.18;;;3.40;;
79646;SDS011;69119;41.718;21.786;2024-03-02T12:32:48;9.90;;;2.72;;
79646;SDS011;69119;41.718;21.786;2024-03-02T12:35:15;8.60;;;3.42;;
79646;SDS011;69119;41.718;21.786;2024-03-02T12:37:51;11.23;;;3.13;;
79646;SDS011;69119;41.718;21.786;2024-03-02T12:40:18;10.45;;;2.88;;
79646;SDS011;69119;41.718;21.786;2024-03-02T12:42:45;8.18;;;3.40;;
79646;SDS011;69119;41.718;21.786;2024-03-02T12:45:11;9.80;;;3.40;;
79646;SDS011;69119;41.718;21.786;2024-03-02T12:47:39;12.43;;;3.95;;
79646;SDS011;69119;41.718;21.786;2024-03-02T12:50:05;10.63;;;4.75;;
79646;SDS011;69119;41.718;21.786;2024-03-02T12:52:31;13.05;;;4.82;;
79646;SDS011;69119;41.718;21.786;2024-03-02T12:54:59;13.77;;;7.95;;
79646;SDS011;69119;41.718;21.786;2024-03-02T12:57:26;18.23;;;10.75;;
79646;SDS011;69119;41.718;21.786;2024-03-02T12:59:54;12.63;;;6.00;;
79646;SDS011;69119;41.718;21.786;2024-03-02T13:02:22;8.40;;;3.45;;
79646;SDS011;69119;41.718;21.786;2024-03-02T13:04:54;8.50;;;3.88;;
79646;SDS011;69119;41.718;21.786;2024-03-02T13:07:22;8.98;;;3.55;;
79646;SDS011;69119;41.718;21.786;2024-03-02T13:09:49;10.32;;;4.03;;
79646;SDS011;69119;41.718;21.786;2024-03-02T13:12:16;8.52;;;3.53;;
79646;SDS011;69119;41.718;21.786;2024-03-02T13:14:42;10.98;;;4.20;;
79646;SDS011;69119;41.718;21.786;2024-03-02T13:17:08;14.52;;;4.85;;
79646;SDS011;69119;41.718;21.786;2024-03-02T13:19:35;10.00;;;3.75;;
79646;SDS011;69119;41.718;21.786;2024-03-02T13:22:01;10.45;;;4.80;;
79646;SDS011;69119;41.718;21.786;2024-03-02T13:24:28;10.25;;;3.88;;
79646;SDS011;69119;41.718;21.786;2024-03-02T13:26:55;10.85;;;5.20;;
79646;SDS011;69119;41.718;21.786;2024-03-02T13:29:23;13.65;;;6.15;;
79646;SDS011;69119;41.718;21.786;2024-03-02T13:34:15;14.63;;;7.03;;
79646;SDS011;69119;41.718;21.786;2024-03-02T13:36:41;13.00;;;6.53;;
79646;SDS011;69119;41.718;21.786;2024-03-02T13:39:07;13.30;;;6.20;;
79646;SDS011;69119;41.718;21.786;2024-03-02T13:41:36;11.20;;;6.38;;
79646;SDS011;69119;41.718;21.786;2024-03-02T13:44:03;15.48;;;6.82;;
79646;SDS011;69119;41.718;21.786;2024-03-02T13:46:29;16.40;;;7.70;;
79646;SDS011;69119;41.718;21.786;2024-03-02T13:48:55;18.33;;;7.10;;
79646;SDS011;69119;41.718;21.786;2024-03-02T13:51:21;11.40;;;5.45;;
79646;SDS011;69119;41.718;21.786;2024-03-02T13:53:47;10.00;;;3.45;;
79646;SDS011;69119;41.718;21.786;2024-03-02T13:56:13;17.55;;;7.10;;
79646;SDS011;69119;41.718;21.786;2024-03-02T13:58:39;12.90;;;5.60;;
79646;SDS011;69119;41.718;21.786;2024-03-02T14:01:06;18.92;;;9.02;;
79646;SDS011;69119;41.718;21.786;2024-03-02T14:03:32;21.63;;;9.75;;
79646;SDS011;69119;41.718;21.786;2024-03-02T14:05:58;21.02;;;10.27;;
79646;SDS011;69119;41.718;21.786;2024-03-02T14:08:24;18.17;;;7.35;;
79646;SDS011;69119;41.718;21.786;2024-03-02T14:10:50;17.88;;;7.47;;
79646;SDS011;69119;41.718;21.786;2024-03-02T14:13:16;12.98;;;6.88;;
79646;SDS011;69119;41.718;21.786;2024-03-02T14:15:42;14.07;;;6.55;;
79646;SDS011;69119;41.718;21.786;2024-03-02T14:18:08;20.50;;;9.07;;
79646;SDS011;69119;41.718;21.786;2024-03-02T14:20:35;20.70;;;10.38;;
79646;SDS011;69119;41.718;21.786;2024-03-02T14:23:02;19.05;;;9.32;;
79646;SDS011;69119;41.718;21.786;2024-03-02T14:25:28;26.45;;;11.00;;
79646;SDS011;69119;41.718;21.786;2024-03-02T14:27:56;20.58;;;10.95;;
79646;SDS011;69119;41.718;21.786;2024-03-02T14:30:23;18.42;;;10.10;;
79646;SDS011;69119;41.718;21.786;2024-03-02T14:32:49;16.95;;;8.07;;
79646;SDS011;69119;41.718;21.786;2024-03-02T14:35:16;17.85;;;7.38;;
79646;SDS011;69119;41.718;21.786;2024-03-02T14:37:42;19.90;;;9.90;;
79646;SDS011;69119;41.718;21.786;2024-03-02T14:40:08;27.52;;;15.48;;
79646;SDS011;69119;41.718;21.786;2024-03-02T14:42:35;24.10;;;12.77;;
79646;SDS011;69119;41.718;21.786;2024-03-02T14:45:01;19.33;;;10.23;;
79646;SDS011;69119;41.718;21.786;2024-03-02T14:47:30;17.52;;;9.63;;
79646;SDS011;69119;41.718;21.786;2024-03-02T14:49:58;20.48;;;10.68;;